Time;durP1;ratioP1;P1;durP2;ratioP2;P2;SDS_P1;SDS_P2;PMS_P1;PMS_P2;Temp;Humidity;BMP_temperature;BMP_pressure;BME280_temperature;BME280_humidity;BME280_pressure;Samples;Min_cycle;Max_cycle;Signal;HPM_P1;HPM_P2
2021/03/31 00:04:58;;;;;;;;;;;;;;;;;;10663929;27;1066;-20
2021/03/31 00:10:20;;;;;;;;;;;;;;;;;;10625096;27;1898;-18
2021/03/31 00:15:41;;;;;;;;;;;;;;;;;;10620694;27;1157;-19
2021/03/31 00:21:02;;;;;;;;;;;;;;;;;;10620270;27;1144;-19
2021/03/31 00:26:22;;;;;;;;;;;;;;;;;;10620207;27;1271;-20
2021/03/31 00:31:42;;;;;;;;;;;;;;;;;;10577098;28;1901;-19
2021/03/31 00:37:03;;;;;;;;;;;;;;;;;;10576952;28;1052;-20
2021/03/31 00:42:23;;;;;;;;;;;;;;;;;;10576766;28;990;-19
2021/03/31 00:47:44;;;;;;;;;;;;;;;;;;10576644;28;1933;-19
2021/03/31 00:53:04;;;;;;;;;;;;;;;;;;10576614;28;1143;-19
2021/03/31 00:58:25;;;;;;;;;;;;;;;;;;10576309;28;1085;-19
2021/03/31 01:03:45;;;;;;;;;;;;;;;;;;10575571;28;1318;-20
2021/03/31 01:09:06;;;;;;;;;;;;;;;;;;10575428;28;1902;-20
2021/03/31 01:14:30;;;;;;;;;;;;;;;;;;10575716;28;1007;-20
2021/03/31 01:19:53;;;;;;;;;;;;;;;;;;10575393;28;1363;-20
2021/03/31 01:25:15;;;;;;;;;;;;;;;;;;10575577;28;1099;-20
2021/03/31 01:30:47;;;;;;;;;;;;;;;;;;10613804;27;1909;-19
2021/03/31 01:36:09;;;;;;;;;;;;;;;;;;10617442;27;1134;-20
2021/03/31 01:41:31;;;;;;;;;;;;;;;;;;10617090;27;1184;-18
2021/03/31 01:46:53;;;;;;;;;;;;;;;;;;10616929;27;1060;-20
2021/03/31 01:52:14;;;;;;;;;;;;;;;;;;10616458;27;1897;-19
2021/03/31 01:57:35;;;;;;;;;;;;;;;;;;10616310;27;1021;-20
2021/03/31 02:02:56;;;;;;;;;;;;;;;;;;10616363;27;1138;-18
2021/03/31 02:08:17;;;;;;;;;;;;;;;;;;10615758;27;1902;-20
2021/03/31 02:13:38;;;;;;;;;;;;;;;;;;10614701;27;1412;-19
2021/03/31 02:18:59;;;;;;;;;;;;;;;;;;10615429;27;1141;-19
2021/03/31 02:24:20;;;;;;;;;;;;;;;;;;10615544;27;1122;-21
2021/03/31 02:29:44;;;;;;;;;;;;;;;;;;10614831;27;1894;-20
2021/03/31 02:35:05;;;;;;;;;;;;;;;;;;10615023;27;982;-20
2021/03/31 02:40:26;;;;;;;;;;;;;;;;;;10614735;27;1065;-20
2021/03/31 02:45:48;;;;;;;;;;;;;;;;;;10614507;27;980;-19
2021/03/31 02:51:08;;;;;;;;;;;;;;;;;;10614222;27;1901;-21
2021/03/31 02:56:29;;;;;;;;;;;;;;;;;;10614274;27;1027;-19
2021/03/31 03:01:49;;;;;;;;;;;;;;;;;;10598453;27;1226;-20
2021/03/31 03:07:10;;;;;;;;;;;;;;;;;;10613905;27;1073;-20
2021/03/31 03:12:30;;;;;;;;;;;;;;;;;;10613679;27;1967;-21
2021/03/31 03:17:51;;;;;;;;;;;;;;;;;;10613531;27;1138;-20
2021/03/31 03:23:12;;;;;;;;;;;;;;;;;;10612998;27;1125;-19
2021/03/31 03:28:32;;;;;;;;;;;;;;;;;;10612795;27;1910;-20
2021/03/31 03:33:53;;;;;;;;;;;;;;;;;;10613236;28;1026;-20
2021/03/31 03:39:13;;;;;;;;;;;;;;;;;;10612978;28;1810;-20
2021/03/31 03:44:34;;;;;;;;;;;;;;;;;;10612991;28;1048;-21
2021/03/31 03:49:54;;;;;;;;;;;;;;;;;;10612718;28;1982;-20
2021/03/31 03:55:19;;;;;;;;;;;;;;;;;;10581704;28;1123;-20
2021/03/31 04:00:39;;;;;;;;;;;;;;;;;;10612805;28;993;-20
2021/03/31 04:06:00;;;;;;;;;;;;;;;;;;10604451;28;1530;-19
2021/03/31 04:11:20;;;;;;;;;;;;;;;;;;10606463;28;1906;-18
2021/03/31 04:16:43;;;;;;;;;;;;;;;;;;10612115;28;1256;-20
2021/03/31 04:22:04;;;;;;;;;;;;;;;;;;10611404;28;1008;-19
2021/03/31 04:27:25;;;;;;;;;;;;;;;;;;10611717;28;1212;-19
2021/03/31 04:32:48;;;;;;;;;;;;;;;;;;10611373;28;1964;-20
2021/03/31 04:38:09;;;;;;;;;;;;;;;;;;10617620;27;1841;-19
2021/03/31 04:43:32;;;;;;;;;;;;;;;;;;10619028;27;1063;-19
2021/03/31 04:48:52;;;;;;;;;;;;;;;;;;10618618;27;1981;-20
2021/03/31 04:54:13;;;;;;;;;;;;;;;;;;10618681;27;1053;-21
2021/03/31 04:59:47;;;;;;;;;;;;;;;;;;10618262;27;1124;-20
2021/03/31 05:05:08;;;;;;;;;;;;;;;;;;10617935;27;1040;-19
2021/03/31 05:10:28;;;;;;;;;;;;;;;;;;10617142;27;1984;-20
2021/03/31 05:15:48;;;;;;;;;;;;;;;;;;10617981;27;1007;-19
2021/03/31 05:21:09;;;;;;;;;;;;;;;;;;10617518;27;1041;-20
2021/03/31 05:26:29;;;;;;;;;;;;;;;;;;10617319;27;1326;-19
2021/03/31 05:31:50;;;;;;;;;;;;;;;;;;10651830;27;1909;-19
2021/03/31 05:37:11;;;;;;;;;;;;;;;;;;10659622;27;1187;-20
2021/03/31 05:42:36;;;;;;;;;;;;;;;;;;10659320;27;1308;-19
2021/03/31 05:47:57;;;;;;;;;;;;;;;;;;10659464;27;1250;-21
2021/03/31 05:53:18;;;;;;;;;;;;;;;;;;10658921;27;1011;-20
2021/03/31 05:58:38;;;;;;;;;;;;;;;;;;10658595;27;1111;-19
2021/03/31 06:03:59;;;;;;;;;;;;;;;;;;10658422;27;1022;-20
2021/03/31 06:09:19;;;;;;;;;;;;;;;;;;10642886;27;1909;-20
2021/03/31 06:14:40;;;;;;;;;;;;;;;;;;10246590;27;10000443;-20
2021/03/31 06:20:01;;;;;;;;;;;;;;;;;;10571775;27;1264;-20
2021/03/31 06:25:28;;;;;;;;;;;;;;;;;;10564484;28;1015;-20
2021/03/31 06:30:48;;;;;;;;;;;;;;;;;;10622046;27;1984;-19
2021/03/31 06:36:09;;;;;;;;;;;;;;;;;;10652854;27;1113;-20
2021/03/31 06:41:33;;;;;;;;;;;;;;;;;;10625486;27;1831;-17
2021/03/31 06:47:00;;;;;;;;;;;;;;;;;;10641086;27;1151;-20
2021/03/31 06:52:21;;;;;;;;;;;;;;;;;;10656043;27;1964;-20
2021/03/31 06:57:49;;;;;;;;;;;;;;;;;;10655066;27;1057;-20
2021/03/31 07:03:10;;;;;;;;;;;;;;;;;;10638747;27;1089;-19
2021/03/31 07:08:34;;;;;;;;;;;;;;;;;;10654363;27;1980;-19
2021/03/31 07:13:55;;;;;;;;;;;;;;;;;;10654763;27;1067;-18
2021/03/31 07:19:15;;;;;;;;;;;;;;;;;;10654305;27;1052;-19
2021/03/31 07:24:53;;;;;;;;;;;;;;;;;;10654375;27;1262;-18
2021/03/31 07:30:15;;;;;;;;;;;;;;;;;;10648955;27;1998;-20
2021/03/31 07:35:47;;;;;;;;;;;;;;;;;;10653842;27;1023;-21
2021/03/31 07:41:07;;;;;;;;;;;;;;;;;;10653451;27;1358;-18
2021/03/31 07:46:32;;;;;;;;;;;;;;;;;;10653729;27;1026;-18
2021/03/31 07:52:03;;;;;;;;;;;;;;;;;;10653368;27;1979;-18
2021/03/31 07:57:24;;;;;;;;;;;;;;;;;;10637680;27;1237;-19
2021/03/31 08:02:45;;;;;;;;;;;;;;;;;;10653323;27;1105;-20
2021/03/31 08:08:13;;;;;;;;;;;;;;;;;;10653251;27;1219;-20
2021/03/31 08:13:34;;;;;;;;;;;;;;;;;;10618162;27;1306;-21
2021/03/31 10:13:36;;;;;;;;;;;;;;;;;;10522299;27;1808;-21
2021/03/31 10:18:56;;;;;;;;;;;;;;;;;;10523414;28;1906;-21
2021/03/31 10:24:33;;;;;;;;;;;;;;;;;;10485211;28;1161;-19
2021/03/31 10:29:56;;;;;;;;;;;;;;;;;;10481129;28;1049;-21
2021/03/31 10:35:54;;;;;;;;;;;;;;;;;;10480868;28;1202;-22
2021/03/31 10:52:25;;;;;;;;;;;;;;;;;;10480083;28;1228;-22
2021/03/31 10:57:45;;;;;;;;;;;;;;;;;;10479072;28;1188;-21
2021/03/31 11:03:05;;;;;;;;;;;;;;;;;;10479464;28;1918;-21
2021/03/31 11:08:25;;;;;;;;;;;;;;;;;;10479494;28;1164;-21
2021/03/31 11:13:46;;;;;;;;;;;;;;;;;;10455896;28;1201;-21
2021/03/31 11:30:44;;;;;;;;;;;;;;;;;;10362977;28;1270;-21
2021/03/31 11:36:05;;;;;;;;;;;;;;;;;;10442380;28;1152;-19
2021/03/31 11:41:26;;;;;;;;;;;;;;;;;;10450736;28;1980;-19
2021/03/31 11:46:46;;;;;;;;;;;;;;;;;;10450705;28;1064;-20
2021/03/31 11:52:07;;;;;;;;;;;;;;;;;;10450390;28;1048;-20
2021/03/31 11:57:27;;;;;;;;;;;;;;;;;;10450466;28;1287;-20
2021/03/31 12:02:48;;;;;;;;;;;;;;;;;;10448771;28;1981;-21
2021/03/31 12:08:08;;;;;;;;;;;;;;;;;;10450024;28;1002;-22
2021/03/31 12:13:29;;;;;;;;;;;;;;;;;;10449002;28;1502;-22
2021/03/31 12:18:49;;;;;;;;;;;;;;;;;;10449683;28;1988;-22
2021/03/31 12:24:09;;;;;;;;;;;;;;;;;;10456446;28;957;-20
2021/03/31 12:29:30;;;;;;;;;;;;;;;;;;10449275;28;1158;-22
2021/03/31 12:34:52;;;;;;;;;;;;;;;;;;10448988;28;1138;-22
2021/03/31 12:40:13;;;;;;;;;;;;;;;;;;10448850;28;1979;-22
2021/03/31 12:45:36;;;;;;;;;;;;;;;;;;10448574;28;1044;-21
2021/03/31 12:51:01;;;;;;;;;;;;;;;;;;10442966;28;1398;-22
2021/03/31 12:56:22;;;;;;;;;;;;;;;;;;10448031;28;1183;-22
2021/03/31 13:01:42;;;;;;;;;;;;;;;;;;10448034;28;1985;-24
2021/03/31 13:07:04;;;;;;;;;;;;;;;;;;10448138;28;1194;-24
2021/03/31 13:12:55;;;;;;;;;;;;;;;;;;10447583;28;1118;-20
2021/03/31 13:40:41;;;;;;;;;;;;;;;;;;10445708;28;1910;-23
2021/03/31 13:46:01;;;;;;;;;;;;;;;;;;10446858;28;1323;-22
2021/03/31 13:51:29;;;;;;;;;;;;;;;;;;10446621;28;1076;-22
2021/03/31 13:56:53;;;;;;;;;;;;;;;;;;10424306;28;1215;-23
2021/03/31 14:02:13;;;;;;;;;;;;;;;;;;10443132;28;1906;-20
2021/03/31 14:07:34;;;;;;;;;;;;;;;;;;10443290;28;1107;-21
2021/03/31 14:12:57;;;;;;;;;;;;;;;;;;10441801;28;1236;-22
2021/03/31 14:18:18;;;;;;;;;;;;;;;;;;10444832;28;1096;-22
2021/03/31 14:23:39;;;;;;;;;;;;;;;;;;10444887;28;1147;-21
2021/03/31 14:28:59;;;;;;;;;;;;;;;;;;10445468;28;1016;-21
2021/03/31 14:34:20;;;;;;;;;;;;;;;;;;10444926;28;1309;-19
2021/03/31 14:39:40;;;;;;;;;;;;;;;;;;10445077;28;1903;-22
2021/03/31 14:45:02;;;;;;;;;;;;;;;;;;10444975;28;1071;-21
2021/03/31 14:50:28;;;;;;;;;;;;;;;;;;10452750;28;1039;-21
2021/03/31 15:01:27;;;;;;;;;;;;;;;;;;10445127;28;1898;-21
2021/03/31 15:06:48;;;;;;;;;;;;;;;;;;10432226;28;1169;-21
2021/03/31 15:12:08;;;;;;;;;;;;;;;;;;10445446;28;1254;-20
2021/03/31 15:17:29;;;;;;;;;;;;;;;;;;10445763;28;1112;-19
2021/03/31 15:23:12;;;;;;;;;;;;;;;;;;10444583;28;1989;-21
2021/03/31 15:28:34;;;;;;;;;;;;;;;;;;10445930;28;974;-21
2021/03/31 15:33:55;;;;;;;;;;;;;;;;;;10444663;28;1082;-20
2021/03/31 15:39:20;;;;;;;;;;;;;;;;;;10444951;28;1910;-20
2021/03/31 15:44:45;;;;;;;;;;;;;;;;;;10443767;28;1214;-21
2021/03/31 15:50:12;;;;;;;;;;;;;;;;;;10441293;28;1136;-20
2021/03/31 15:55:37;;;;;;;;;;;;;;;;;;10091466;28;10000465;-23
2021/03/31 16:01:03;;;;;;;;;;;;;;;;;;10434405;28;1981;-20
2021/03/31 16:12:12;;;;;;;;;;;;;;;;;;10443410;28;1115;-22
2021/03/31 16:17:37;;;;;;;;;;;;;;;;;;10443736;28;1171;-22
2021/03/31 16:23:02;;;;;;;;;;;;;;;;;;10442860;28;1987;-22
2021/03/31 16:28:45;;;;;;;;;;;;;;;;;;10443363;28;1227;-21
2021/03/31 16:34:11;;;;;;;;;;;;;;;;;;10441256;28;1049;-22
2021/03/31 16:39:36;;;;;;;;;;;;;;;;;;10442775;28;1974;-21
2021/03/31 16:45:01;;;;;;;;;;;;;;;;;;10442408;28;1041;-20
2021/03/31 16:50:26;;;;;;;;;;;;;;;;;;10442407;28;1032;-21
2021/03/31 16:55:52;;;;;;;;;;;;;;;;;;10435055;28;2515;-21
2021/03/31 17:01:18;;;;;;;;;;;;;;;;;;10427760;28;2007;-21
2021/03/31 17:06:43;;;;;;;;;;;;;;;;;;10438186;28;1506;-21
2021/03/31 17:12:08;;;;;;;;;;;;;;;;;;10419419;28;1261;-20
2021/03/31 17:17:34;;;;;;;;;;;;;;;;;;10424570;28;1313;-21
2021/03/31 17:22:59;;;;;;;;;;;;;;;;;;10439415;28;1985;-19
2021/03/31 17:28:24;;;;;;;;;;;;;;;;;;10439927;28;1316;-21
2021/03/31 17:33:49;;;;;;;;;;;;;;;;;;10437426;28;992;-21
2021/03/31 17:39:14;;;;;;;;;;;;;;;;;;10438518;28;1975;-22
2021/03/31 17:44:39;;;;;;;;;;;;;;;;;;10439999;28;1017;-21
2021/03/31 17:50:07;;;;;;;;;;;;;;;;;;10440351;28;1360;-21
2021/03/31 17:55:29;;;;;;;;;;;;;;;;;;10436300;28;2224;-22
2021/03/31 18:00:55;;;;;;;;;;;;;;;;;;10440708;28;1902;-22
2021/03/31 18:06:20;;;;;;;;;;;;;;;;;;10439361;28;1347;-22
2021/03/31 18:11:45;;;;;;;;;;;;;;;;;;10397940;28;1056;-21
2021/03/31 18:17:12;;;;;;;;;;;;;;;;;;10399088;28;1109;-21
2021/03/31 18:22:38;;;;;;;;;;;;;;;;;;10444776;28;3413;-20
2021/03/31 18:28:04;;;;;;;;;;;;;;;;;;10474788;28;1122;-20
2021/03/31 18:33:29;;;;;;;;;;;;;;;;;;10446909;28;1106;-23
2021/03/31 18:38:54;;;;;;;;;;;;;;;;;;10445460;28;1117;-22
2021/03/31 18:44:22;;;;;;;;;;;;;;;;;;10435831;28;1386;-21
2021/03/31 18:49:48;;;;;;;;;;;;;;;;;;10403624;28;1085;-23
2021/03/31 18:55:15;;;;;;;;;;;;;;;;;;10418812;28;1023;-23
2021/03/31 19:00:40;;;;;;;;;;;;;;;;;;10464226;28;1930;-24
2021/03/31 19:06:06;;;;;;;;;;;;;;;;;;10487487;28;1040;-25
2021/03/31 19:11:26;;;;;;;;;;;;;;;;;;10487418;28;1153;-21
2021/03/31 19:16:53;;;;;;;;;;;;;;;;;;10487171;28;961;-23
2021/03/31 19:22:13;;;;;;;;;;;;;;;;;;10404436;28;1906;-23
2021/03/31 19:27:39;;;;;;;;;;;;;;;;;;10404781;28;1214;-23
2021/03/31 19:33:04;;;;;;;;;;;;;;;;;;10416197;28;1049;-22
2021/03/31 19:38:32;;;;;;;;;;;;;;;;;;10415762;28;1141;-23
2021/03/31 19:44:07;;;;;;;;;;;;;;;;;;10456573;28;1973;-23
2021/03/31 19:49:33;;;;;;;;;;;;;;;;;;10489320;28;1148;-21
2021/03/31 19:54:58;;;;;;;;;;;;;;;;;;10491453;28;1105;-21
2021/03/31 20:00:24;;;;;;;;;;;;;;;;;;10458484;28;1902;-21
2021/03/31 20:05:49;;;;;;;;;;;;;;;;;;10449833;28;964;-18
2021/03/31 20:11:14;;;;;;;;;;;;;;;;;;10449449;28;1412;-20
2021/03/31 20:16:42;;;;;;;;;;;;;;;;;;10448848;28;1059;-19
2021/03/31 20:22:08;;;;;;;;;;;;;;;;;;10448564;28;1909;-20
2021/03/31 20:27:33;;;;;;;;;;;;;;;;;;10448974;28;1095;-20
2021/03/31 20:32:59;;;;;;;;;;;;;;;;;;10448347;28;1085;-20
2021/03/31 20:38:24;;;;;;;;;;;;;;;;;;10448589;28;1007;-20
2021/03/31 20:43:49;;;;;;;;;;;;;;;;;;10447491;28;1982;-19
2021/03/31 20:49:15;;;;;;;;;;;;;;;;;;10448128;28;1114;-20
2021/03/31 20:54:41;;;;;;;;;;;;;;;;;;10447973;28;1084;-19
2021/03/31 21:00:07;;;;;;;;;;;;;;;;;;10459517;28;1906;-21
2021/03/31 21:05:32;;;;;;;;;;;;;;;;;;10488816;28;1027;-21
2021/03/31 21:10:58;;;;;;;;;;;;;;;;;;10488182;28;1054;-18
2021/03/31 21:16:32;;;;;;;;;;;;;;;;;;10487247;28;1001;-20
2021/03/31 21:21:58;;;;;;;;;;;;;;;;;;10463806;28;1999;-21
2021/03/31 21:27:23;;;;;;;;;;;;;;;;;;10446626;28;1311;-20
2021/03/31 21:32:48;;;;;;;;;;;;;;;;;;10419275;28;2795;-19
2021/03/31 21:38:13;;;;;;;;;;;;;;;;;;10405268;28;1098;-20
2021/03/31 21:43:38;;;;;;;;;;;;;;;;;;10436560;28;1983;-20
2021/03/31 21:49:03;;;;;;;;;;;;;;;;;;10487408;28;1150;-21
2021/03/31 21:54:24;;;;;;;;;;;;;;;;;;10480012;28;1079;-20
2021/03/31 21:59:44;;;;;;;;;;;;;;;;;;10442976;28;2120;-20
2021/03/31 22:05:04;;;;;;;;;;;;;;;;;;10445527;28;1017;-20
2021/03/31 22:10:27;;;;;;;;;;;;;;;;;;10444928;28;1070;-23
2021/03/31 22:15:47;;;;;;;;;;;;;;;;;;10445445;28;1023;-19
2021/03/31 22:21:08;;;;;;;;;;;;;;;;;;10445114;28;1902;-19
2021/03/31 22:26:31;;;;;;;;;;;;;;;;;;10445392;28;944;-18
2021/03/31 22:31:51;;;;;;;;;;;;;;;;;;10445081;28;1039;-18
2021/03/31 22:37:12;;;;;;;;;;;;;;;;;;10444978;28;1061;-20
2021/03/31 22:42:33;;;;;;;;;;;;;;;;;;10444640;28;1991;-20
2021/03/31 22:47:54;;;;;;;;;;;;;;;;;;10444886;28;1175;-19
2021/03/31 22:53:24;;;;;;;;;;;;;;;;;;10444521;28;1064;-18
2021/03/31 22:58:44;;;;;;;;;;;;;;;;;;10444660;28;1183;-20
2021/03/31 23:04:09;;;;;;;;;;;;;;;;;;10480414;28;1992;-18
2021/03/31 23:09:29;;;;;;;;;;;;;;;;;;10490782;28;1283;-20
2021/03/31 23:14:50;;;;;;;;;;;;;;;;;;10492964;28;1098;-20
2021/03/31 23:20:12;;;;;;;;;;;;;;;;;;10472368;28;1902;-19
2021/03/31 23:25:33;;;;;;;;;;;;;;;;;;10451440;28;1204;-20
2021/03/31 23:30:54;;;;;;;;;;;;;;;;;;10450897;28;1030;-20
2021/03/31 23:36:14;;;;;;;;;;;;;;;;;;10450825;28;1064;-20
2021/03/31 23:41:34;;;;;;;;;;;;;;;;;;10450461;28;1979;-20
2021/03/31 23:46:55;;;;;;;;;;;;;;;;;;10485803;28;1552;-19
2021/03/31 23:52:16;;;;;;;;;;;;;;;;;;10491632;28;1092;-20
2021/03/31 23:57:37;;;;;;;;;;;;;;;;;;10491576;28;1217;-20
